sensor_id;sensor_type;location;lat;lon;timestamp;pressure;altitude;pressure_sealevel;temperature;humidity
24996;BME280;13016;52.162;21.034;2023-05-11T00:02:43;100957.16;;;14.89;32.75
24996;BME280;13016;52.162;21.034;2023-05-11T00:08:43;100951.73;;;14.87;33.15
24996;BME280;13016;52.162;21.034;2023-05-11T00:14:44;100954.27;;;14.84;33.63
24996;BME280;13016;52.162;21.034;2023-05-11T00:20:44;100949.09;;;14.80;33.88
24996;BME280;13016;52.162;21.034;2023-05-11T00:26:45;100950.74;;;14.66;34.02
24996;BME280;13016;52.162;21.034;2023-05-11T00:32:45;100956.23;;;14.48;34.32
24996;BME280;13016;52.162;21.034;2023-05-11T00:38:45;100952.26;;;14.31;34.58
24996;BME280;13016;52.162;21.034;2023-05-11T00:44:46;100951.50;;;14.18;34.69
24996;BME280;13016;52.162;21.034;2023-05-11T00:50:46;100943.27;;;14.12;34.74
24996;BME280;13016;52.162;21.034;2023-05-11T00:56:46;100946.52;;;14.08;34.77
24996;BME280;13016;52.162;21.034;2023-05-11T01:02:47;100941.92;;;13.98;34.93
24996;BME280;13016;52.162;21.034;2023-05-11T01:09:12;100941.48;;;13.85;35.11
24996;BME280;13016;52.162;21.034;2023-05-11T01:15:33;100933.71;;;13.77;35.26
24996;BME280;13016;52.162;21.034;2023-05-11T01:21:38;100933.95;;;13.84;35.09
24996;BME280;13016;52.162;21.034;2023-05-11T01:34:09;100938.48;;;13.83;35.09
24996;BME280;13016;52.162;21.034;2023-05-11T01:40:15;100932.29;;;13.74;35.28
24996;BME280;13016;52.162;21.034;2023-05-11T01:46:16;100927.56;;;13.73;35.24
24996;BME280;13016;52.162;21.034;2023-05-11T01:52:19;100924.67;;;13.68;35.45
24996;BME280;13016;52.162;21.034;2023-05-11T01:58:23;100925.85;;;13.61;35.67
24996;BME280;13016;52.162;21.034;2023-05-11T02:04:25;100926.18;;;13.59;35.89
24996;BME280;13016;52.162;21.034;2023-05-11T02:10:27;100926.83;;;13.49;36.21
24996;BME280;13016;52.162;21.034;2023-05-11T02:16:30;100919.67;;;13.39;36.56
24996;BME280;13016;52.162;21.034;2023-05-11T02:22:32;100924.13;;;13.33;36.76
24996;BME280;13016;52.162;21.034;2023-05-11T02:28:33;100929.02;;;13.24;36.83
24996;BME280;13016;52.162;21.034;2023-05-11T02:34:43;100925.23;;;13.08;37.26
24996;BME280;13016;52.162;21.034;2023-05-11T02:40:48;100930.52;;;12.94;37.50
24996;BME280;13016;52.162;21.034;2023-05-11T02:46:51;100930.32;;;12.83;37.83
24996;BME280;13016;52.162;21.034;2023-05-11T02:52:55;100937.39;;;12.74;38.04
24996;BME280;13016;52.162;21.034;2023-05-11T02:58:56;100937.77;;;12.68;38.18
24996;BME280;13016;52.162;21.034;2023-05-11T03:04:56;100940.89;;;12.57;38.41
24996;BME280;13016;52.162;21.034;2023-05-11T03:10:57;100942.80;;;12.61;38.48
24996;BME280;13016;52.162;21.034;2023-05-11T03:16:58;100941.39;;;12.61;38.33
24996;BME280;13016;52.162;21.034;2023-05-11T03:23:00;100948.30;;;12.52;38.52
24996;BME280;13016;52.162;21.034;2023-05-11T03:29:01;100951.17;;;12.57;38.45
24996;BME280;13016;52.162;21.034;2023-05-11T03:35:02;100957.98;;;12.55;38.39
24996;BME280;13016;52.162;21.034;2023-05-11T03:41:02;100958.63;;;12.62;38.14
24996;BME280;13016;52.162;21.034;2023-05-11T03:47:03;100966.84;;;12.70;38.03
24996;BME280;13016;52.162;21.034;2023-05-11T03:53:04;100970.41;;;12.76;37.93
24996;BME280;13016;52.162;21.034;2023-05-11T03:59:05;100975.98;;;12.86;37.86
24996;BME280;13016;52.162;21.034;2023-05-11T04:05:10;100982.25;;;12.99;37.74
24996;BME280;13016;52.162;21.034;2023-05-11T04:11:17;100984.38;;;13.16;37.72
24996;BME280;13016;52.162;21.034;2023-05-11T04:17:17;100980.73;;;13.41;37.50
24996;BME280;13016;52.162;21.034;2023-05-11T04:23:17;100979.13;;;13.60;37.19
24996;BME280;13016;52.162;21.034;2023-05-11T04:29:18;100978.92;;;13.71;37.11
24996;BME280;13016;52.162;21.034;2023-05-11T04:35:18;100979.00;;;13.84;36.71
24996;BME280;13016;52.162;21.034;2023-05-11T04:41:18;100987.88;;;14.05;36.34
24996;BME280;13016;52.162;21.034;2023-05-11T04:47:18;100986.57;;;14.31;36.20
24996;BME280;13016;52.162;21.034;2023-05-11T04:53:19;100990.88;;;14.43;35.98
24996;BME280;13016;52.162;21.034;2023-05-11T04:59:19;100994.19;;;14.69;35.61
24996;BME280;13016;52.162;21.034;2023-05-11T05:05:19;100993.94;;;15.07;34.98
24996;BME280;13016;52.162;21.034;2023-05-11T05:11:20;100993.55;;;15.40;34.60
24996;BME280;13016;52.162;21.034;2023-05-11T05:17:30;101000.93;;;15.90;33.41
24996;BME280;13016;52.162;21.034;2023-05-11T05:23:43;101009.34;;;16.77;31.85
24996;BME280;13016;52.162;21.034;2023-05-11T05:36:07;101014.05;;;18.52;28.95
24996;BME280;13016;52.162;21.034;2023-05-11T05:42:24;101016.22;;;19.29;27.67
24996;BME280;13016;52.162;21.034;2023-05-11T05:48:44;101021.83;;;20.24;26.21
24996;BME280;13016;52.162;21.034;2023-05-11T05:55:07;101029.70;;;20.95;25.56
24996;BME280;13016;52.162;21.034;2023-05-11T06:01:07;101027.14;;;21.61;24.20
24996;BME280;13016;52.162;21.034;2023-05-11T06:07:08;101028.95;;;22.42;22.89
24996;BME280;13016;52.162;21.034;2023-05-11T06:13:17;101028.39;;;23.09;22.08
24996;BME280;13016;52.162;21.034;2023-05-11T06:19:18;101035.02;;;23.74;20.73
24996;BME280;13016;52.162;21.034;2023-05-11T06:25:18;101032.69;;;23.30;21.44
24996;BME280;13016;52.162;21.034;2023-05-11T06:31:19;101035.40;;;23.56;21.46
24996;BME280;13016;52.162;21.034;2023-05-11T06:37:31;101036.40;;;23.32;21.62
24996;BME280;13016;52.162;21.034;2023-05-11T06:43:34;101040.05;;;23.71;20.96
24996;BME280;13016;52.162;21.034;2023-05-11T07:31:51;101030.97;;;25.27;17.45
24996;BME280;13016;52.162;21.034;2023-05-11T07:38:17;101031.73;;;25.26;17.64
24996;BME280;13016;52.162;21.034;2023-05-11T07:44:17;101037.40;;;24.92;17.13
24996;BME280;13016;52.162;21.034;2023-05-11T08:48:02;101018.31;;;25.49;16.54
24996;BME280;13016;52.162;21.034;2023-05-11T10:31:23;100957.41;;;22.60;19.55
24996;BME280;13016;52.162;21.034;2023-05-11T10:37:59;100950.90;;;22.34;19.66
24996;BME280;13016;52.162;21.034;2023-05-11T13:40:21;100865.13;;;23.91;20.65
24996;BME280;13016;52.162;21.034;2023-05-11T13:46:21;100860.86;;;23.81;21.36
24996;BME280;13016;52.162;21.034;2023-05-11T14:16:00;100847.60;;;24.08;20.97
24996;BME280;13016;52.162;21.034;2023-05-11T14:22:33;100844.88;;;23.79;21.40
24996;BME280;13016;52.162;21.034;2023-05-11T15:25:05;100836.80;;;24.26;20.28
24996;BME280;13016;52.162;21.034;2023-05-11T15:31:20;100839.34;;;23.95;20.63
24996;BME280;13016;52.162;21.034;2023-05-11T15:55:23;100841.85;;;23.88;20.50
24996;BME280;13016;52.162;21.034;2023-05-11T16:01:39;100842.83;;;23.68;20.53
24996;BME280;13016;52.162;21.034;2023-05-11T16:07:39;100845.49;;;23.55;20.56
24996;BME280;13016;52.162;21.034;2023-05-11T16:35:40;100840.03;;;24.00;20.58
24996;BME280;13016;52.162;21.034;2023-05-11T16:41:41;100841.09;;;23.59;20.81
24996;BME280;13016;52.162;21.034;2023-05-11T17:00:15;100846.48;;;23.84;20.58
24996;BME280;13016;52.162;21.034;2023-05-11T17:06:21;100844.23;;;23.47;20.97
24996;BME280;13016;52.162;21.034;2023-05-11T17:23:54;100851.20;;;23.51;20.67
24996;BME280;13016;52.162;21.034;2023-05-11T17:29:55;100848.23;;;23.18;20.72
24996;BME280;13016;52.162;21.034;2023-05-11T17:47:28;100858.77;;;23.31;20.72
24996;BME280;13016;52.162;21.034;2023-05-11T17:53:50;100862.27;;;23.05;20.97
24996;BME280;13016;52.162;21.034;2023-05-11T17:59:53;100866.70;;;22.73;21.43
24996;BME280;13016;52.162;21.034;2023-05-11T18:05:54;100874.40;;;22.51;21.72
24996;BME280;13016;52.162;21.034;2023-05-11T18:11:54;100877.55;;;22.39;21.93
24996;BME280;13016;52.162;21.034;2023-05-11T18:17:55;100884.52;;;22.28;22.28
24996;BME280;13016;52.162;21.034;2023-05-11T18:23:55;100887.15;;;22.14;22.32
24996;BME280;13016;52.162;21.034;2023-05-11T18:30:00;100893.14;;;22.01;22.58
24996;BME280;13016;52.162;21.034;2023-05-11T18:36:02;100899.86;;;21.83;23.08
24996;BME280;13016;52.162;21.034;2023-05-11T18:42:03;100902.40;;;21.75;23.14
24996;BME280;13016;52.162;21.034;2023-05-11T18:48:06;100906.73;;;21.70;23.42
24996;BME280;13016;52.162;21.034;2023-05-11T18:54:07;100910.50;;;21.55;23.61
24996;BME280;13016;52.162;21.034;2023-05-11T19:00:08;100911.95;;;21.31;24.16
24996;BME280;13016;52.162;21.034;2023-05-11T19:06:09;100917.67;;;21.21;24.22
24996;BME280;13016;52.162;21.034;2023-05-11T19:12:21;100926.95;;;21.10;24.56
24996;BME280;13016;52.162;21.034;2023-05-11T19:18:21;100933.00;;;20.90;24.86
24996;BME280;13016;52.162;21.034;2023-05-11T19:24:22;100937.47;;;20.75;25.26
24996;BME280;13016;52.162;21.034;2023-05-11T19:30:23;100941.20;;;20.61;25.71
24996;BME280;13016;52.162;21.034;2023-05-11T19:36:23;100943.39;;;20.43;26.16
24996;BME280;13016;52.162;21.034;2023-05-11T19:42:23;100946.44;;;20.26;26.43
24996;BME280;13016;52.162;21.034;2023-05-11T19:48:24;100948.27;;;20.08;26.86
24996;BME280;13016;52.162;21.034;2023-05-11T19:54:24;100949.48;;;19.93;27.27
24996;BME280;13016;52.162;21.034;2023-05-11T20:00:24;100947.45;;;19.74;27.72
24996;BME280;13016;52.162;21.034;2023-05-11T20:06:28;100949.13;;;19.62;28.04
24996;BME280;13016;52.162;21.034;2023-05-11T20:12:28;100956.65;;;19.49;28.33
24996;BME280;13016;52.162;21.034;2023-05-11T20:18:28;100959.10;;;19.36;28.71
24996;BME280;13016;52.162;21.034;2023-05-11T20:24:29;100963.39;;;19.30;28.73
24996;BME280;13016;52.162;21.034;2023-05-11T20:30:29;100962.39;;;19.20;29.09
24996;BME280;13016;52.162;21.034;2023-05-11T20:36:30;100968.17;;;19.08;29.30
24996;BME280;13016;52.162;21.034;2023-05-11T20:42:30;100972.05;;;18.98;29.56
24996;BME280;13016;52.162;21.034;2023-05-11T20:48:31;100973.36;;;18.87;29.86
24996;BME280;13016;52.162;21.034;2023-05-11T20:54:31;100965.57;;;18.76;29.98
24996;BME280;13016;52.162;21.034;2023-05-11T21:00:31;100969.05;;;18.67;30.31
24996;BME280;13016;52.162;21.034;2023-05-11T21:06:33;100973.64;;;18.59;30.34
24996;BME280;13016;52.162;21.034;2023-05-11T21:12:33;100978.54;;;18.52;30.56
24996;BME280;13016;52.162;21.034;2023-05-11T21:18:34;100983.95;;;18.39;30.75
24996;BME280;13016;52.162;21.034;2023-05-11T21:24:36;100988.88;;;18.27;31.12
24996;BME280;13016;52.162;21.034;2023-05-11T21:30:38;100992.98;;;18.16;31.44
24996;BME280;13016;52.162;21.034;2023-05-11T21:36:38;100996.92;;;18.05;31.62
24996;BME280;13016;52.162;21.034;2023-05-11T21:42:44;101000.65;;;17.97;31.61
24996;BME280;13016;52.162;21.034;2023-05-11T21:48:44;101000.38;;;17.89;31.82
24996;BME280;13016;52.162;21.034;2023-05-11T21:54:44;101007.20;;;17.80;31.91
24996;BME280;13016;52.162;21.034;2023-05-11T22:00:45;101010.33;;;17.75;32.07
24996;BME280;13016;52.162;21.034;2023-05-11T22:06:45;101011.77;;;17.72;31.97
24996;BME280;13016;52.162;21.034;2023-05-11T22:12:45;101013.36;;;17.61;32.24
24996;BME280;13016;52.162;21.034;2023-05-11T22:18:45;101017.54;;;17.43;32.64
24996;BME280;13016;52.162;21.034;2023-05-11T22:24:51;101024.80;;;17.41;32.64
24996;BME280;13016;52.162;21.034;2023-05-11T22:30:51;101027.84;;;17.37;32.74
24996;BME280;13016;52.162;21.034;2023-05-11T22:36:52;101034.65;;;17.27;32.91
24996;BME280;13016;52.162;21.034;2023-05-11T22:42:55;101035.90;;;17.04;33.32
24996;BME280;13016;52.162;21.034;2023-05-11T22:48:55;101040.30;;;17.07;33.37
24996;BME280;13016;52.162;21.034;2023-05-11T22:54:55;101037.48;;;17.02;33.33
24996;BME280;13016;52.162;21.034;2023-05-11T23:00:55;101040.73;;;16.90;33.45
24996;BME280;13016;52.162;21.034;2023-05-11T23:06:56;101039.06;;;16.82;33.72
24996;BME280;13016;52.162;21.034;2023-05-11T23:12:56;101037.38;;;16.76;33.79
24996;BME280;13016;52.162;21.034;2023-05-11T23:18:56;101037.91;;;16.69;33.88
24996;BME280;13016;52.162;21.034;2023-05-11T23:24:56;101033.16;;;16.61;34.13
24996;BME280;13016;52.162;21.034;2023-05-11T23:30:57;101031.51;;;16.62;33.99
24996;BME280;13016;52.162;21.034;2023-05-11T23:36:57;101030.94;;;16.53;34.26
24996;BME280;13016;52.162;21.034;2023-05-11T23:42:57;101028.84;;;16.45;34.26
24996;BME280;13016;52.162;21.034;2023-05-11T23:48:57;101028.09;;;16.41;34.32
24996;BME280;13016;52.162;21.034;2023-05-11T23:54:58;101026.26;;;16.30;34.43
